KCPS/CPS METAR and TAF weather

Enter ICAO airport designator
Station Type Date Time Source
KCPS METAR 2019/06/16 12:53 UTC NOAA

KCPS 161253Z 23005KT 10SM OVC033 24/21 A2985 RMK AO2 SLP103 T02390211


Station Type Date Time Source
KCPS Decoded METAR 2019/06/16 12:53 UTC NOAA

ST LOUIS DOWNTOWN AIRPORT, IL, United States (KCPS) 38-34N 090-09W 126M
Jun 16, 2019 - 08:53 AM EDT / 2019.06.16 1253 UTC
Wind: from the SW (230 degrees) at 6 MPH (5 KT):0
Visibility: 10 mile(s):0
Sky conditions: overcast
Temperature: 75.0 F (23.9 C)
Dew Point: 70.0 F (21.1 C)
Relative Humidity: 84%
Pressure (altimeter): 29.85 in. Hg (1010 hPa)
ob: KCPS 161253Z 23005KT 10SM OVC033 24/21 A2985 RMK AO2 SLP103 T02390211
cycle: 13

Station Type Date Time Source
KCPS TAF 2019/06/16 12:39 UTC NOAA

TAF KCPS 161135Z 1612/1712 VRB04KT P6SM VCSH SCT030 BKN120
FM161400 24007KT P6SM OVC120
FM162100 27006KT P6SM VCTS SCT050CB BKN120
FM170300 VRB04KT P6SM SCT040 BKN120
FM170900 VRB04KT P6SM BKN030

Example: see airport list